LEX weather

Blue Grass Airport
Lexington, Kentucky, United States

Public forecast

Using degrees Fahrenheit for public forecast. Weather courtesy of forecast.io.

Current aviation weather report (METAR) for Blue Grass Airport

Retrieved 2020/04/07 14:54 UTC (49 minutes ago):

KLEX 071454Z 23010KT 10SM FEW041 BKN060 BKN075 19/14 A2997 RMK AO2 SLP145 T01940144 51001

Aviation forecast (TAF) for Blue Grass Airport

Retrieved 2020/04/07 12:22 UTC (3 hours ago):

TAF KLEX 071120Z 0712/0812 18006KT P6SM BKN050 BKN250 FM071700 23012G21KT P6SM BKN035 FM080000 23015G24KT P6SM BKN050 FM080700 23012KT P6SM VCTS BKN035CB